»·PEaware :: N12345 L52-L88

N12345 :: L52-L88

FLIGHT INFORMATION

Flight Status: Arrived
Operator: Privately registered:
United States
More flights under this callsign
Pilot: Jens D. (45426)
Aircraft: CESSNA 172 SKYHAWK
(C172)
More flights by this aircraft type
Origin: L52 Oceano Co
United States
Destination: L88 New Cuyama
United States
More flights between these airports :: More routes between these airports
Route: 350438N1202806W 350708N1200633W
File this flight plan on PilotEdge
Remarks:
Altitude:
(Current/Filed)
6,000ft
Speed:
(Current/Filed)
100kts
Departed: 16-Nov-23 12:33 PM
Arrived: 16-Nov-23 01:02 PM
Distance/Time
Traveled:
47nm/0:29
Distance/Time
To Go:
Arrived

Flight Plot

Page will automatically refresh every two minutes.

Flight plan parsing failed; only flown route is shown


Map Options




Map Legend


Flown Route
Filed Route
Departure Airport
Arrival Airport
Navaid (VOR, NDB)
Fix

Horizontal Profiles

Position Reports

Time Latitude Longitude Heading Altitude Ground
Speed
16-Nov-23 12:14 35.102916 -120.624929 123 20ft 0kts
16-Nov-23 12:15 35.102916 -120.624929 123 21ft 0kts
16-Nov-23 12:16 35.102916 -120.624929 123 21ft 0kts
16-Nov-23 12:17 35.102916 -120.624929 123 21ft 0kts
16-Nov-23 12:18 35.102916 -120.624929 123 21ft 0kts
16-Nov-23 12:19 35.102916 -120.624929 123 21ft 0kts
16-Nov-23 12:20 35.102916 -120.624929 123 21ft 0kts
16-Nov-23 12:21 35.102916 -120.624929 123 21ft 0kts
16-Nov-23 12:22 35.102916 -120.624929 123 21ft 0kts
16-Nov-23 12:23 35.102916 -120.624929 123 21ft 0kts
16-Nov-23 12:24 35.102916 -120.624929 123 21ft 0kts
16-Nov-23 12:25 35.102916 -120.624929 123 21ft 0kts
16-Nov-23 12:26 35.102916 -120.624929 123 22ft 0kts
16-Nov-23 12:27 35.102916 -120.624929 123 22ft 0kts
16-Nov-23 12:28 35.102916 -120.624929 123 22ft 0kts
16-Nov-23 12:29 35.102916 -120.624929 123 22ft 0kts
16-Nov-23 12:30 35.102916 -120.624929 123 22ft 0kts
16-Nov-23 12:31 35.102916 -120.624929 123 22ft 0kts
16-Nov-23 12:32 35.096553 -120.605717 122 308ft 91kts
16-Nov-23 12:33 35.087428 -120.574386 119 1101ft 96kts
16-Nov-23 12:34 35.076031 -120.544658 124 1764ft 92kts
16-Nov-23 12:35 35.065605 -120.516113 121 2218ft 92kts
16-Nov-23 12:36 35.062905 -120.483641 87 2469ft 104kts
16-Nov-23 12:37 35.069753 -120.448999 85 2936ft 105kts
16-Nov-23 12:38 35.077000 -120.413857 87 3184ft 117kts
16-Nov-23 12:39 35.084668 -120.376390 85 3441ft 112kts
16-Nov-23 12:40 35.088970 -120.339371 96 3631ft 108kts
16-Nov-23 12:41 35.091359 -120.302911 95 3814ft 109kts
16-Nov-23 12:42 35.094023 -120.266296 93 4025ft 110kts
16-Nov-23 12:43 35.098831 -120.229263 89 4224ft 110kts
16-Nov-23 12:44 35.104775 -120.192086 90 4426ft 109kts
16-Nov-23 12:45 35.110705 -120.155218 87 4202ft 113kts
16-Nov-23 12:46 35.116851 -120.117055 87 4547ft 113kts
16-Nov-23 12:47 35.109474 -120.083752 126 4608ft 102kts
16-Nov-23 12:48 35.096325 -120.052690 126 4786ft 102kts
16-Nov-23 12:49 35.083233 -120.021805 126 4979ft 102kts
16-Nov-23 12:50 35.070253 -119.990846 126 4819ft 104kts
16-Nov-23 12:51 35.058962 -119.957366 120 4438ft 106kts
16-Nov-23 12:52 35.047520 -119.924321 124 4090ft 105kts
16-Nov-23 12:53 35.034209 -119.894069 127 3769ft 100kts
16-Nov-23 12:54 35.018468 -119.866596 145 3436ft 95kts
16-Nov-23 12:55 35.000161 -119.843474 133 3377ft 91kts
16-Nov-23 12:56 34.987672 -119.815353 124 3297ft 96kts
16-Nov-23 12:57 34.977061 -119.784034 117 3196ft 100kts
16-Nov-23 12:58 34.966258 -119.752930 115 2966ft 99kts
16-Nov-23 12:59 34.955243 -119.723948 119 2739ft 70kts
16-Nov-23 13:00 34.946962 -119.702086 117 2397ft 69kts
16-Nov-23 13:01 34.940520 -119.687083 110 2181ft 0kts
16-Nov-23 13:02 34.941601 -119.688827 344 2170ft 0kts
16-Nov-23 13:03 34.941601 -119.688827 344 2170ft 0kts
16-Nov-23 13:04 34.941601 -119.688827 344 2170ft 0kts

Navigation Log

Ident Type
Flight plan parsing failed, navigation log unavailable